sensor_id;sensor_type;location;lat;lon;timestamp;pressure;altitude;pressure_sealevel;temperature;humidity
37206;BME280;23099;42.636;23.198;2023-02-16T00:01:41;93135.41;;;-2.48;90.01
37206;BME280;23099;42.636;23.198;2023-02-16T00:04:16;93114.16;;;-2.52;89.93
37206;BME280;23099;42.636;23.198;2023-02-16T00:06:45;93135.97;;;-2.41;89.93
37206;BME280;23099;42.636;23.198;2023-02-16T00:09:12;93129.72;;;-2.35;89.52
37206;BME280;23099;42.636;23.198;2023-02-16T00:11:39;93139.50;;;-2.57;89.73
37206;BME280;23099;42.636;23.198;2023-02-16T00:14:24;93136.09;;;-2.58;89.84
37206;BME280;23099;42.636;23.198;2023-02-16T00:16:51;93131.66;;;-2.57;90.18
37206;BME280;23099;42.636;23.198;2023-02-16T00:19:20;93125.38;;;-2.56;90.69
37206;BME280;23099;42.636;23.198;2023-02-16T00:21:50;93125.69;;;-2.53;90.00
37206;BME280;23099;42.636;23.198;2023-02-16T00:24:17;93124.69;;;-2.46;89.53
37206;BME280;23099;42.636;23.198;2023-02-16T00:26:44;93123.00;;;-2.63;90.29
37206;BME280;23099;42.636;23.198;2023-02-16T00:29:16;93122.22;;;-2.63;90.74
37206;BME280;23099;42.636;23.198;2023-02-16T00:31:43;93115.97;;;-2.57;91.30
37206;BME280;23099;42.636;23.198;2023-02-16T00:34:24;93119.13;;;-2.55;91.11
37206;BME280;23099;42.636;23.198;2023-02-16T00:36:52;93113.88;;;-2.55;91.39
37206;BME280;23099;42.636;23.198;2023-02-16T00:39:19;93123.94;;;-2.37;91.38
37206;BME280;23099;42.636;23.198;2023-02-16T00:41:46;93117.66;;;-2.36;89.87
37206;BME280;23099;42.636;23.198;2023-02-16T00:44:20;93129.63;;;-2.45;87.79
37206;BME280;23099;42.636;23.198;2023-02-16T00:46:47;93124.94;;;-2.48;87.67
37206;BME280;23099;42.636;23.198;2023-02-16T00:49:14;93121.44;;;-2.59;87.32
37206;BME280;23099;42.636;23.198;2023-02-16T00:51:41;93130.03;;;-2.68;87.68
37206;BME280;23099;42.636;23.198;2023-02-16T00:54:10;93123.53;;;-2.61;89.76
37206;BME280;23099;42.636;23.198;2023-02-16T00:56:36;93124.59;;;-2.62;90.27
37206;BME280;23099;42.636;23.198;2023-02-16T00:59:05;93119.91;;;-2.60;90.41
37206;BME280;23099;42.636;23.198;2023-02-16T01:01:33;93114.91;;;-2.61;90.43
37206;BME280;23099;42.636;23.198;2023-02-16T01:04:03;93112.97;;;-2.76;90.62
37206;BME280;23099;42.636;23.198;2023-02-16T01:06:31;93114.25;;;-2.78;91.34
37206;BME280;23099;42.636;23.198;2023-02-16T01:09:19;93120.06;;;-2.71;91.47
37206;BME280;23099;42.636;23.198;2023-02-16T01:12:07;93114.75;;;-2.81;91.42
37206;BME280;23099;42.636;23.198;2023-02-16T01:14:37;93112.03;;;-2.97;91.85
37206;BME280;23099;42.636;23.198;2023-02-16T01:17:04;93115.75;;;-2.88;91.86
37206;BME280;23099;42.636;23.198;2023-02-16T01:19:30;93111.72;;;-3.00;90.54
37206;BME280;23099;42.636;23.198;2023-02-16T01:21:57;93114.72;;;-2.87;91.57
37206;BME280;23099;42.636;23.198;2023-02-16T01:24:25;93110.50;;;-2.88;90.21
37206;BME280;23099;42.636;23.198;2023-02-16T01:26:52;93113.34;;;-2.94;89.21
37206;BME280;23099;42.636;23.198;2023-02-16T01:29:20;93104.06;;;-3.12;89.05
37206;BME280;23099;42.636;23.198;2023-02-16T01:31:47;93105.88;;;-3.12;90.88
37206;BME280;23099;42.636;23.198;2023-02-16T01:34:14;93099.78;;;-3.23;92.11
37206;BME280;23099;42.636;23.198;2023-02-16T01:36:42;93098.56;;;-3.42;94.40
37206;BME280;23099;42.636;23.198;2023-02-16T01:39:11;93091.72;;;-3.48;95.43
37206;BME280;23099;42.636;23.198;2023-02-16T01:42:03;93087.31;;;-3.43;96.06
37206;BME280;23099;42.636;23.198;2023-02-16T01:44:36;93092.44;;;-3.26;96.09
37206;BME280;23099;42.636;23.198;2023-02-16T01:47:09;93079.88;;;-3.56;94.75
37206;BME280;23099;42.636;23.198;2023-02-16T01:49:38;93083.25;;;-3.34;95.84
37206;BME280;23099;42.636;23.198;2023-02-16T01:52:11;93081.81;;;-3.46;94.63
37206;BME280;23099;42.636;23.198;2023-02-16T01:54:42;93077.34;;;-3.46;96.05
37206;BME280;23099;42.636;23.198;2023-02-16T01:57:24;93074.38;;;-3.28;96.35
37206;BME280;23099;42.636;23.198;2023-02-16T02:00:21;93084.22;;;-3.08;96.07
37206;BME280;23099;42.636;23.198;2023-02-16T02:02:53;93079.78;;;-3.07;94.57
37206;BME280;23099;42.636;23.198;2023-02-16T02:05:41;93080.16;;;-2.94;94.21
37206;BME280;23099;42.636;23.198;2023-02-16T02:08:26;93081.47;;;-2.91;93.11
37206;BME280;23099;42.636;23.198;2023-02-16T02:11:04;93074.97;;;-2.89;93.21
37206;BME280;23099;42.636;23.198;2023-02-16T02:13:39;93069.69;;;-2.94;92.51
37206;BME280;23099;42.636;23.198;2023-02-16T02:16:09;93080.94;;;-2.93;92.92
37206;BME280;23099;42.636;23.198;2023-02-16T02:18:36;93070.97;;;-2.96;93.04
37206;BME280;23099;42.636;23.198;2023-02-16T02:21:29;93074.09;;;-2.99;93.62
37206;BME280;23099;42.636;23.198;2023-02-16T02:24:41;93065.31;;;-3.20;93.38
37206;BME280;23099;42.636;23.198;2023-02-16T02:27:19;93063.50;;;-3.19;93.38
37206;BME280;23099;42.636;23.198;2023-02-16T02:30:18;93071.09;;;-3.13;93.71
37206;BME280;23099;42.636;23.198;2023-02-16T02:33:08;93065.69;;;-3.06;93.87
37206;BME280;23099;42.636;23.198;2023-02-16T02:35:44;93045.50;;;-3.11;94.09
37206;BME280;23099;42.636;23.198;2023-02-16T02:38:17;93065.53;;;-2.90;93.89
37206;BME280;23099;42.636;23.198;2023-02-16T02:40:52;93066.97;;;-3.09;92.76
37206;BME280;23099;42.636;23.198;2023-02-16T02:43:30;93060.75;;;-2.98;92.99
37206;BME280;23099;42.636;23.198;2023-02-16T02:46:04;93055.41;;;-3.18;91.52
37206;BME280;23099;42.636;23.198;2023-02-16T02:48:33;93055.47;;;-3.08;93.18
37206;BME280;23099;42.636;23.198;2023-02-16T02:51:02;93063.81;;;-3.11;93.60
37206;BME280;23099;42.636;23.198;2023-02-16T02:53:50;93070.66;;;-3.05;93.23
37206;BME280;23099;42.636;23.198;2023-02-16T02:56:40;93065.44;;;-3.05;93.23
37206;BME280;23099;42.636;23.198;2023-02-16T02:59:29;93065.19;;;-3.03;92.77
37206;BME280;23099;42.636;23.198;2023-02-16T03:02:14;93073.69;;;-3.18;92.28
37206;BME280;23099;42.636;23.198;2023-02-16T03:04:43;93071.56;;;-3.21;93.68
37206;BME280;23099;42.636;23.198;2023-02-16T03:07:13;93067.94;;;-3.20;94.06
37206;BME280;23099;42.636;23.198;2023-02-16T03:09:40;93071.34;;;-3.19;94.42
37206;BME280;23099;42.636;23.198;2023-02-16T03:12:07;93075.25;;;-3.17;93.92
37206;BME280;23099;42.636;23.198;2023-02-16T03:14:55;93075.19;;;-3.27;93.78
37206;BME280;23099;42.636;23.198;2023-02-16T03:17:29;93073.31;;;-3.32;94.22
37206;BME280;23099;42.636;23.198;2023-02-16T03:20:15;93073.53;;;-3.38;95.37
37206;BME280;23099;42.636;23.198;2023-02-16T03:23:00;93065.63;;;-3.43;95.91
37206;BME280;23099;42.636;23.198;2023-02-16T03:25:46;93073.03;;;-3.35;96.20
37206;BME280;23099;42.636;23.198;2023-02-16T03:28:33;93063.00;;;-3.43;95.26
37206;BME280;23099;42.636;23.198;2023-02-16T03:31:21;93065.06;;;-3.50;95.59
37206;BME280;23099;42.636;23.198;2023-02-16T03:33:49;93066.16;;;-3.41;95.85
37206;BME280;23099;42.636;23.198;2023-02-16T03:36:19;93067.81;;;-3.35;95.78
37206;BME280;23099;42.636;23.198;2023-02-16T03:38:45;93058.47;;;-3.26;95.18
37206;BME280;23099;42.636;23.198;2023-02-16T03:41:12;93061.13;;;-3.16;94.88
37206;BME280;23099;42.636;23.198;2023-02-16T03:43:39;93060.88;;;-3.19;94.29
37206;BME280;23099;42.636;23.198;2023-02-16T03:46:05;93059.06;;;-3.14;94.66
37206;BME280;23099;42.636;23.198;2023-02-16T03:48:33;93062.22;;;-3.12;94.72
37206;BME280;23099;42.636;23.198;2023-02-16T03:51:00;93058.63;;;-3.01;94.90
37206;BME280;23099;42.636;23.198;2023-02-16T03:53:27;93052.34;;;-3.05;94.44
37206;BME280;23099;42.636;23.198;2023-02-16T03:55:53;93049.50;;;-2.98;93.93
37206;BME280;23099;42.636;23.198;2023-02-16T03:58:22;93048.41;;;-3.07;93.91
37206;BME280;23099;42.636;23.198;2023-02-16T04:00:50;93049.41;;;-3.13;94.33
37206;BME280;23099;42.636;23.198;2023-02-16T04:03:17;93046.03;;;-3.09;94.52
37206;BME280;23099;42.636;23.198;2023-02-16T04:05:45;93043.69;;;-3.10;94.48
37206;BME280;23099;42.636;23.198;2023-02-16T04:08:12;93041.84;;;-3.10;94.33
37206;BME280;23099;42.636;23.198;2023-02-16T04:10:39;93032.91;;;-3.14;94.75
37206;BME280;23099;42.636;23.198;2023-02-16T04:13:05;93039.28;;;-3.05;94.98
37206;BME280;23099;42.636;23.198;2023-02-16T04:15:31;93034.25;;;-3.11;94.42
37206;BME280;23099;42.636;23.198;2023-02-16T04:17:58;93030.50;;;-3.26;95.16
37206;BME280;23099;42.636;23.198;2023-02-16T04:20:28;93039.38;;;-3.27;94.80
37206;BME280;23099;42.636;23.198;2023-02-16T04:22:56;93037.88;;;-3.17;94.49
37206;BME280;23099;42.636;23.198;2023-02-16T04:25:23;93032.31;;;-3.26;94.99
37206;BME280;23099;42.636;23.198;2023-02-16T04:27:50;93022.16;;;-3.23;95.00
37206;BME280;23099;42.636;23.198;2023-02-16T04:30:18;93027.69;;;-3.19;94.86
37206;BME280;23099;42.636;23.198;2023-02-16T04:32:46;93026.41;;;-3.11;94.69
37206;BME280;23099;42.636;23.198;2023-02-16T04:35:12;93028.34;;;-2.97;94.32
37206;BME280;23099;42.636;23.198;2023-02-16T04:37:39;93021.44;;;-3.13;92.00
37206;BME280;23099;42.636;23.198;2023-02-16T04:40:10;93016.69;;;-3.16;93.31
37206;BME280;23099;42.636;23.198;2023-02-16T04:42:37;93026.38;;;-3.16;91.87
37206;BME280;23099;42.636;23.198;2023-02-16T04:45:05;93034.25;;;-3.43;93.51
37206;BME280;23099;42.636;23.198;2023-02-16T04:47:32;93024.94;;;-3.34;94.10
37206;BME280;23099;42.636;23.198;2023-02-16T04:49:59;93044.31;;;-3.30;93.10
37206;BME280;23099;42.636;23.198;2023-02-16T04:52:25;93032.69;;;-3.44;91.89
37206;BME280;23099;42.636;23.198;2023-02-16T04:54:52;93035.81;;;-3.47;95.32
37206;BME280;23099;42.636;23.198;2023-02-16T04:57:20;93035.91;;;-3.37;96.09
37206;BME280;23099;42.636;23.198;2023-02-16T04:59:48;93049.25;;;-3.34;96.04
37206;BME280;23099;42.636;23.198;2023-02-16T05:02:15;93040.69;;;-3.24;96.10
37206;BME280;23099;42.636;23.198;2023-02-16T05:04:41;93042.47;;;-3.30;94.51
37206;BME280;23099;42.636;23.198;2023-02-16T05:07:08;93044.34;;;-3.25;95.48
37206;BME280;23099;42.636;23.198;2023-02-16T05:09:35;93043.25;;;-3.34;96.73
37206;BME280;23099;42.636;23.198;2023-02-16T05:12:01;93044.91;;;-3.23;95.92
37206;BME280;23099;42.636;23.198;2023-02-16T05:14:47;93061.66;;;-3.19;94.80
37206;BME280;23099;42.636;23.198;2023-02-16T05:17:16;93056.63;;;-3.26;92.39
37206;BME280;23099;42.636;23.198;2023-02-16T05:19:45;93043.78;;;-3.32;92.92
37206;BME280;23099;42.636;23.198;2023-02-16T05:22:12;93057.63;;;-3.32;91.60
37206;BME280;23099;42.636;23.198;2023-02-16T05:24:40;93060.28;;;-3.27;92.76
37206;BME280;23099;42.636;23.198;2023-02-16T05:27:09;93054.97;;;-3.37;92.62
37206;BME280;23099;42.636;23.198;2023-02-16T05:29:36;93059.91;;;-3.40;94.08
37206;BME280;23099;42.636;23.198;2023-02-16T05:32:04;93069.38;;;-3.34;95.57
37206;BME280;23099;42.636;23.198;2023-02-16T05:34:31;93063.91;;;-3.33;96.17
37206;BME280;23099;42.636;23.198;2023-02-16T05:36:58;93070.25;;;-3.24;96.31
37206;BME280;23099;42.636;23.198;2023-02-16T05:39:24;93073.06;;;-3.30;93.29
37206;BME280;23099;42.636;23.198;2023-02-16T05:41:51;93069.00;;;-3.48;93.83
37206;BME280;23099;42.636;23.198;2023-02-16T05:44:18;93061.19;;;-3.43;95.53
37206;BME280;23099;42.636;23.198;2023-02-16T05:46:44;93076.22;;;-3.28;95.19
37206;BME280;23099;42.636;23.198;2023-02-16T05:49:14;93075.38;;;-3.66;92.30
37206;BME280;23099;42.636;23.198;2023-02-16T05:51:41;93078.84;;;-3.55;94.93
37206;BME280;23099;42.636;23.198;2023-02-16T05:54:08;93072.53;;;-3.59;96.98
37206;BME280;23099;42.636;23.198;2023-02-16T05:56:41;93074.25;;;-3.43;97.56
37206;BME280;23099;42.636;23.198;2023-02-16T05:59:08;93079.78;;;-3.39;97.67
37206;BME280;23099;42.636;23.198;2023-02-16T06:01:35;93083.75;;;-3.32;97.66
37206;BME280;23099;42.636;23.198;2023-02-16T06:04:05;93087.25;;;-3.21;97.13
37206;BME280;23099;42.636;23.198;2023-02-16T06:06:33;93079.66;;;-3.23;96.90
37206;BME280;23099;42.636;23.198;2023-02-16T06:09:00;93095.00;;;-3.31;96.81
37206;BME280;23099;42.636;23.198;2023-02-16T06:11:27;93093.03;;;-3.19;97.32
37206;BME280;23099;42.636;23.198;2023-02-16T06:14:06;93104.53;;;-3.20;96.95
37206;BME280;23099;42.636;23.198;2023-02-16T06:16:34;93104.47;;;-3.25;96.84
37206;BME280;23099;42.636;23.198;2023-02-16T06:19:02;93105.81;;;-3.23;97.05
37206;BME280;23099;42.636;23.198;2023-02-16T06:21:28;93102.59;;;-3.30;97.18
37206;BME280;23099;42.636;23.198;2023-02-16T06:23:57;93102.56;;;-3.35;97.25
37206;BME280;23099;42.636;23.198;2023-02-16T06:26:24;93106.94;;;-3.40;97.55
37206;BME280;23099;42.636;23.198;2023-02-16T06:28:51;93109.72;;;-3.52;97.99
37206;BME280;23099;42.636;23.198;2023-02-16T06:31:18;93112.09;;;-3.50;98.99
37206;BME280;23099;42.636;23.198;2023-02-16T06:33:45;93098.25;;;-3.51;99.30
37206;BME280;23099;42.636;23.198;2023-02-16T06:36:13;93113.50;;;-3.38;99.32
37206;BME280;23099;42.636;23.198;2023-02-16T06:38:40;93110.34;;;-3.40;99.10
37206;BME280;23099;42.636;23.198;2023-02-16T06:41:08;93107.03;;;-3.30;99.14
37206;BME280;23099;42.636;23.198;2023-02-16T06:43:35;93110.50;;;-3.25;99.45
37206;BME280;23099;42.636;23.198;2023-02-16T06:46:02;93113.91;;;-3.24;99.40
37206;BME280;23099;42.636;23.198;2023-02-16T06:48:29;93111.34;;;-3.14;99.52
37206;BME280;23099;42.636;23.198;2023-02-16T06:50:55;93112.44;;;-3.10;99.57
37206;BME280;23099;42.636;23.198;2023-02-16T06:53:22;93110.91;;;-3.06;99.19
37206;BME280;23099;42.636;23.198;2023-02-16T06:55:50;93111.97;;;-3.07;99.56
37206;BME280;23099;42.636;23.198;2023-02-16T06:58:18;93108.13;;;-2.94;100.00
37206;BME280;23099;42.636;23.198;2023-02-16T07:00:45;93111.41;;;-2.77;100.00
37206;BME280;23099;42.636;23.198;2023-02-16T07:03:11;93109.38;;;-2.65;99.94
37206;BME280;23099;42.636;23.198;2023-02-16T07:05:38;93102.97;;;-2.47;99.60
37206;BME280;23099;42.636;23.198;2023-02-16T07:08:05;93100.13;;;-2.30;98.06
37206;BME280;23099;42.636;23.198;2023-02-16T07:10:32;93087.91;;;-2.15;97.20
37206;BME280;23099;42.636;23.198;2023-02-16T07:12:59;93089.00;;;-2.00;96.30
37206;BME280;23099;42.636;23.198;2023-02-16T07:15:27;93089.63;;;-1.78;95.70
37206;BME280;23099;42.636;23.198;2023-02-16T07:17:54;93089.13;;;-1.65;95.30
37206;BME280;23099;42.636;23.198;2023-02-16T07:20:20;93077.63;;;-1.54;94.49
37206;BME280;23099;42.636;23.198;2023-02-16T07:22:47;93075.53;;;-1.42;93.84
37206;BME280;23099;42.636;23.198;2023-02-16T07:25:14;93061.16;;;-1.34;93.35
37206;BME280;23099;42.636;23.198;2023-02-16T07:27:40;93066.66;;;-1.25;92.17
37206;BME280;23099;42.636;23.198;2023-02-16T07:30:08;93074.28;;;-1.03;92.50
37206;BME280;23099;42.636;23.198;2023-02-16T07:32:37;93065.84;;;-0.85;92.04
37206;BME280;23099;42.636;23.198;2023-02-16T07:35:03;93068.47;;;-0.70;91.68
37206;BME280;23099;42.636;23.198;2023-02-16T07:37:30;93065.03;;;-0.55;91.47
37206;BME280;23099;42.636;23.198;2023-02-16T07:39:57;93064.16;;;-0.25;90.66
37206;BME280;23099;42.636;23.198;2023-02-16T07:42:23;93058.31;;;-0.02;89.13
37206;BME280;23099;42.636;23.198;2023-02-16T07:44:50;93053.66;;;0.34;89.89
37206;BME280;23099;42.636;23.198;2023-02-16T07:47:17;93058.16;;;0.73;89.25
37206;BME280;23099;42.636;23.198;2023-02-16T07:49:45;93069.78;;;1.05;85.53
37206;BME280;23099;42.636;23.198;2023-02-16T07:52:11;93064.81;;;1.33;85.56
37206;BME280;23099;42.636;23.198;2023-02-16T07:54:38;93070.25;;;1.70;83.90
37206;BME280;23099;42.636;23.198;2023-02-16T07:57:05;93066.66;;;2.09;82.45
37206;BME280;23099;42.636;23.198;2023-02-16T07:59:32;93059.13;;;2.45;81.25
37206;BME280;23099;42.636;23.198;2023-02-16T08:01:59;93066.81;;;2.79;79.08
37206;BME280;23099;42.636;23.198;2023-02-16T08:04:25;93064.72;;;3.13;78.58
37206;BME280;23099;42.636;23.198;2023-02-16T08:06:53;93067.22;;;3.56;75.57
37206;BME280;23099;42.636;23.198;2023-02-16T08:09:20;93066.19;;;4.12;74.65
37206;BME280;23099;42.636;23.198;2023-02-16T08:11:47;93064.09;;;4.50;70.92
37206;BME280;23099;42.636;23.198;2023-02-16T08:14:14;93066.25;;;4.97;71.18
37206;BME280;23099;42.636;23.198;2023-02-16T08:16:40;93077.50;;;5.39;70.65
37206;BME280;23099;42.636;23.198;2023-02-16T08:19:07;93074.47;;;5.77;68.38
37206;BME280;23099;42.636;23.198;2023-02-16T08:21:35;93072.34;;;5.87;63.74
37206;BME280;23099;42.636;23.198;2023-02-16T08:24:06;93072.84;;;5.89;63.91
37206;BME280;23099;42.636;23.198;2023-02-16T08:26:35;93074.63;;;5.80;64.06
37206;BME280;23099;42.636;23.198;2023-02-16T08:29:04;93079.03;;;5.85;65.17
37206;BME280;23099;42.636;23.198;2023-02-16T08:31:33;93082.84;;;5.70;64.76
37206;BME280;23099;42.636;23.198;2023-02-16T08:34:01;93078.66;;;5.78;65.34
37206;BME280;23099;42.636;23.198;2023-02-16T08:36:29;93082.72;;;6.06;65.41
37206;BME280;23099;42.636;23.198;2023-02-16T08:38:57;93085.66;;;6.35;62.95
37206;BME280;23099;42.636;23.198;2023-02-16T08:41:28;93083.72;;;6.58;61.62
37206;BME280;23099;42.636;23.198;2023-02-16T08:43:56;93081.59;;;6.86;58.73
37206;BME280;23099;42.636;23.198;2023-02-16T08:46:23;93077.09;;;7.30;56.90
37206;BME280;23099;42.636;23.198;2023-02-16T08:48:49;93077.09;;;7.64;57.00
37206;BME280;23099;42.636;23.198;2023-02-16T08:51:18;93054.31;;;7.93;55.93
37206;BME280;23099;42.636;23.198;2023-02-16T08:53:45;93063.47;;;8.12;53.00
37206;BME280;23099;42.636;23.198;2023-02-16T08:56:13;93058.28;;;8.33;52.70
37206;BME280;23099;42.636;23.198;2023-02-16T08:58:42;93060.97;;;8.63;52.58
37206;BME280;23099;42.636;23.198;2023-02-16T09:01:09;93056.66;;;8.70;51.33
37206;BME280;23099;42.636;23.198;2023-02-16T09:03:38;93062.94;;;8.95;51.64
37206;BME280;23099;42.636;23.198;2023-02-16T09:06:08;93060.06;;;9.09;51.04
37206;BME280;23099;42.636;23.198;2023-02-16T09:08:35;93063.25;;;9.23;49.13
37206;BME280;23099;42.636;23.198;2023-02-16T09:11:05;93060.75;;;9.39;50.99
37206;BME280;23099;42.636;23.198;2023-02-16T09:13:32;93061.94;;;9.50;46.11
37206;BME280;23099;42.636;23.198;2023-02-16T09:16:02;93062.19;;;9.69;47.42
37206;BME280;23099;42.636;23.198;2023-02-16T09:18:29;93063.38;;;9.80;47.33
37206;BME280;23099;42.636;23.198;2023-02-16T09:21:01;93061.69;;;9.76;48.30
37206;BME280;23099;42.636;23.198;2023-02-16T09:23:29;93057.75;;;9.94;45.41
37206;BME280;23099;42.636;23.198;2023-02-16T09:25:58;93057.31;;;10.04;47.62
37206;BME280;23099;42.636;23.198;2023-02-16T09:28:26;93061.72;;;10.21;47.02
37206;BME280;23099;42.636;23.198;2023-02-16T09:30:53;93064.84;;;10.35;47.82
37206;BME280;23099;42.636;23.198;2023-02-16T09:33:22;93054.84;;;10.32;47.14
37206;BME280;23099;42.636;23.198;2023-02-16T09:35:48;93052.81;;;10.53;47.72
37206;BME280;23099;42.636;23.198;2023-02-16T09:38:15;93057.41;;;10.53;46.72
37206;BME280;23099;42.636;23.198;2023-02-16T09:40:43;93052.28;;;10.48;47.84
37206;BME280;23099;42.636;23.198;2023-02-16T09:43:17;93048.25;;;10.54;47.51
37206;BME280;23099;42.636;23.198;2023-02-16T09:45:52;93042.50;;;10.64;46.53
37206;BME280;23099;42.636;23.198;2023-02-16T09:48:34;93037.03;;;10.48;43.61
37206;BME280;23099;42.636;23.198;2023-02-16T09:51:02;93041.91;;;10.58;47.32
37206;BME280;23099;42.636;23.198;2023-02-16T09:53:35;93036.38;;;10.63;47.66
37206;BME280;23099;42.636;23.198;2023-02-16T09:56:12;93036.13;;;10.56;47.30
37206;BME280;23099;42.636;23.198;2023-02-16T09:58:45;93019.75;;;10.58;46.65
37206;BME280;23099;42.636;23.198;2023-02-16T10:01:19;93032.56;;;10.65;45.29
37206;BME280;23099;42.636;23.198;2023-02-16T10:03:56;93027.91;;;10.61;45.95
37206;BME280;23099;42.636;23.198;2023-02-16T10:06:35;93025.53;;;9.78;47.58
37206;BME280;23099;42.636;23.198;2023-02-16T10:09:10;93028.16;;;9.12;49.65
37206;BME280;23099;42.636;23.198;2023-02-16T10:11:41;93029.41;;;8.94;51.09
37206;BME280;23099;42.636;23.198;2023-02-16T10:14:19;93029.66;;;9.22;50.64
37206;BME280;23099;42.636;23.198;2023-02-16T10:16:51;93022.44;;;9.23;50.02
37206;BME280;23099;42.636;23.198;2023-02-16T10:19:23;93022.72;;;9.63;47.66
37206;BME280;23099;42.636;23.198;2023-02-16T10:21:55;93009.91;;;10.13;48.47
37206;BME280;23099;42.636;23.198;2023-02-16T10:24:25;93016.75;;;10.47;45.66
37206;BME280;23099;42.636;23.198;2023-02-16T10:26:58;93020.28;;;10.88;45.21
37206;BME280;23099;42.636;23.198;2023-02-16T10:29:27;93013.97;;;10.56;40.01
37206;BME280;23099;42.636;23.198;2023-02-16T10:32:03;93017.16;;;10.98;43.90
37206;BME280;23099;42.636;23.198;2023-02-16T10:34:47;93000.78;;;11.40;40.84
37206;BME280;23099;42.636;23.198;2023-02-16T10:37:24;93000.75;;;11.95;37.86
37206;BME280;23099;42.636;23.198;2023-02-16T10:40:08;93002.84;;;12.33;33.98
37206;BME280;23099;42.636;23.198;2023-02-16T10:42:42;92991.94;;;12.58;33.30
37206;BME280;23099;42.636;23.198;2023-02-16T10:45:19;92994.56;;;12.89;32.58
37206;BME280;23099;42.636;23.198;2023-02-16T10:47:48;92990.97;;;13.01;31.63
37206;BME280;23099;42.636;23.198;2023-02-16T10:50:21;92994.31;;;13.14;31.03
37206;BME280;23099;42.636;23.198;2023-02-16T10:52:51;92988.22;;;13.32;30.73
37206;BME280;23099;42.636;23.198;2023-02-16T10:55:21;92984.00;;;13.51;32.65
37206;BME280;23099;42.636;23.198;2023-02-16T10:57:53;92984.97;;;13.81;31.07
37206;BME280;23099;42.636;23.198;2023-02-16T11:00:26;92984.63;;;13.63;30.77
37206;BME280;23099;42.636;23.198;2023-02-16T11:02:54;92977.34;;;13.64;31.10
37206;BME280;23099;42.636;23.198;2023-02-16T11:05:32;92971.78;;;13.95;30.24
37206;BME280;23099;42.636;23.198;2023-02-16T11:08:00;92961.72;;;13.92;29.68
37206;BME280;23099;42.636;23.198;2023-02-16T11:10:36;92981.75;;;13.95;30.42
37206;BME280;23099;42.636;23.198;2023-02-16T11:13:04;92968.13;;;14.07;29.46
37206;BME280;23099;42.636;23.198;2023-02-16T11:15:32;92969.81;;;14.15;28.59
37206;BME280;23099;42.636;23.198;2023-02-16T11:18:03;92964.56;;;14.22;29.84
37206;BME280;23099;42.636;23.198;2023-02-16T11:20:49;92968.91;;;14.30;28.41
37206;BME280;23099;42.636;23.198;2023-02-16T11:23:21;92961.97;;;13.84;27.60
37206;BME280;23099;42.636;23.198;2023-02-16T11:26:00;92960.25;;;14.18;28.10
37206;BME280;23099;42.636;23.198;2023-02-16T11:28:30;92961.03;;;14.18;29.13
37206;BME280;23099;42.636;23.198;2023-02-16T11:31:14;92960.16;;;13.68;28.43
37206;BME280;23099;42.636;23.198;2023-02-16T11:33:53;92958.88;;;14.04;28.77
37206;BME280;23099;42.636;23.198;2023-02-16T11:36:23;92947.66;;;14.44;30.12
37206;BME280;23099;42.636;23.198;2023-02-16T11:38:57;92945.50;;;14.80;28.33
37206;BME280;23099;42.636;23.198;2023-02-16T11:41:25;92942.97;;;15.20;28.46
37206;BME280;23099;42.636;23.198;2023-02-16T11:43:52;92946.19;;;15.63;26.70
37206;BME280;23099;42.636;23.198;2023-02-16T11:46:20;92940.91;;;15.74;26.24
37206;BME280;23099;42.636;23.198;2023-02-16T11:48:48;92947.97;;;15.52;27.31
37206;BME280;23099;42.636;23.198;2023-02-16T11:51:33;92939.75;;;15.41;26.77
37206;BME280;23099;42.636;23.198;2023-02-16T11:54:04;92932.84;;;15.44;27.38
37206;BME280;23099;42.636;23.198;2023-02-16T11:56:33;92939.59;;;15.57;26.87
37206;BME280;23099;42.636;23.198;2023-02-16T11:59:06;92931.59;;;15.34;28.15
37206;BME280;23099;42.636;23.198;2023-02-16T12:01:45;92936.97;;;15.34;26.50
37206;BME280;23099;42.636;23.198;2023-02-16T12:04:23;92930.59;;;15.49;28.83
37206;BME280;23099;42.636;23.198;2023-02-16T12:07:05;92925.41;;;16.04;28.86
37206;BME280;23099;42.636;23.198;2023-02-16T12:09:46;92924.53;;;15.93;26.17
37206;BME280;23099;42.636;23.198;2023-02-16T12:12:17;92924.41;;;15.45;26.99
37206;BME280;23099;42.636;23.198;2023-02-16T12:14:56;92919.09;;;15.52;26.27
37206;BME280;23099;42.636;23.198;2023-02-16T12:17:42;92912.00;;;15.37;26.91
37206;BME280;23099;42.636;23.198;2023-02-16T12:20:28;92913.44;;;14.98;28.33
37206;BME280;23099;42.636;23.198;2023-02-16T12:23:03;92916.78;;;14.61;28.52
37206;BME280;23099;42.636;23.198;2023-02-16T12:25:38;92921.75;;;14.36;27.72
37206;BME280;23099;42.636;23.198;2023-02-16T12:28:15;92922.25;;;14.19;27.37
37206;BME280;23099;42.636;23.198;2023-02-16T12:30:50;92909.28;;;14.47;28.62
37206;BME280;23099;42.636;23.198;2023-02-16T12:33:26;92903.50;;;14.75;30.04
37206;BME280;23099;42.636;23.198;2023-02-16T12:36:30;92908.28;;;14.59;28.27
37206;BME280;23099;42.636;23.198;2023-02-16T12:39:04;92899.13;;;14.64;27.85
37206;BME280;23099;42.636;23.198;2023-02-16T12:41:42;92905.56;;;14.56;28.23
37206;BME280;23099;42.636;23.198;2023-02-16T12:44:14;92897.50;;;14.33;28.11
37206;BME280;23099;42.636;23.198;2023-02-16T12:46:43;92894.91;;;14.13;27.94
37206;BME280;23099;42.636;23.198;2023-02-16T12:49:15;92891.38;;;14.09;27.82
37206;BME280;23099;42.636;23.198;2023-02-16T12:51:47;92896.41;;;14.37;28.54
37206;BME280;23099;42.636;23.198;2023-02-16T12:54:21;92885.47;;;14.49;28.17
37206;BME280;23099;42.636;23.198;2023-02-16T12:56:56;92882.00;;;14.49;27.61
37206;BME280;23099;42.636;23.198;2023-02-16T12:59:30;92877.69;;;14.41;29.07
37206;BME280;23099;42.636;23.198;2023-02-16T13:02:00;92861.75;;;14.32;28.26
37206;BME280;23099;42.636;23.198;2023-02-16T13:04:38;92875.53;;;14.04;27.46
37206;BME280;23099;42.636;23.198;2023-02-16T13:07:12;92874.41;;;14.05;28.58
37206;BME280;23099;42.636;23.198;2023-02-16T13:09:50;92877.78;;;13.99;26.76
37206;BME280;23099;42.636;23.198;2023-02-16T13:12:25;92884.50;;;13.89;28.67